Terminal Aerodrome Forecast
Issued by NWS Shreveport, LA

Home | Current Version | Previous Version | Text Only | Print | Product List | Glossary On
Versions: 1 2 3 4 5 6 7 8 9 10 11 12 13 14 15 16 17 18
000
FTUS44 KSHV 221700
TAFMLU
TAF
KMLU 221720Z 2218/2318 23006KT P6SM FEW040
     FM230100 VRB03KT P6SM SKC
      TEMPO 2310/2314 2SM BR BKN015
     FM231400 26005KT P6SM FEW050=

USA.gov is the U.S. government's official web portal to all federal, state and local government web resources and services.